sensor_id;sensor_type;location;lat;lon;timestamp;P1;durP1;ratioP1;P2;durP2;ratioP2
11203;SDS011;5659;49.408;11.116;2023-04-03T00:01:31;3.93;;;2.70;;
11203;SDS011;5659;49.408;11.116;2023-04-03T00:03:57;3.60;;;2.60;;
11203;SDS011;5659;49.408;11.116;2023-04-03T00:06:23;4.97;;;2.70;;
11203;SDS011;5659;49.408;11.116;2023-04-03T00:08:49;2.80;;;2.20;;
11203;SDS011;5659;49.408;11.116;2023-04-03T00:11:16;4.23;;;2.53;;
11203;SDS011;5659;49.408;11.116;2023-04-03T00:13:42;4.47;;;2.53;;
11203;SDS011;5659;49.408;11.116;2023-04-03T00:16:08;4.10;;;2.50;;
11203;SDS011;5659;49.408;11.116;2023-04-03T00:18:35;3.80;;;2.40;;
11203;SDS011;5659;49.408;11.116;2023-04-03T00:21:01;6.10;;;2.67;;
11203;SDS011;5659;49.408;11.116;2023-04-03T00:23:27;3.90;;;2.50;;
11203;SDS011;5659;49.408;11.116;2023-04-03T00:25:53;3.30;;;2.50;;
11203;SDS011;5659;49.408;11.116;2023-04-03T00:28:19;2.73;;;2.27;;
11203;SDS011;5659;49.408;11.116;2023-04-03T00:30:45;5.53;;;2.70;;
11203;SDS011;5659;49.408;11.116;2023-04-03T00:33:11;4.17;;;2.60;;
11203;SDS011;5659;49.408;11.116;2023-04-03T00:35:37;2.50;;;2.20;;
11203;SDS011;5659;49.408;11.116;2023-04-03T00:38:03;3.00;;;2.40;;
11203;SDS011;5659;49.408;11.116;2023-04-03T00:40:32;3.23;;;2.50;;
11203;SDS011;5659;49.408;11.116;2023-04-03T00:42:59;3.10;;;2.27;;
11203;SDS011;5659;49.408;11.116;2023-04-03T00:45:27;2.60;;;2.23;;
11203;SDS011;5659;49.408;11.116;2023-04-03T00:47:57;3.27;;;2.40;;
11203;SDS011;5659;49.408;11.116;2023-04-03T00:50:26;2.40;;;2.20;;
11203;SDS011;5659;49.408;11.116;2023-04-03T00:52:53;4.07;;;2.53;;
11203;SDS011;5659;49.408;11.116;2023-04-03T00:55:20;3.27;;;2.60;;
11203;SDS011;5659;49.408;11.116;2023-04-03T00:57:46;4.00;;;2.53;;
11203;SDS011;5659;49.408;11.116;2023-04-03T01:00:14;2.80;;;2.20;;
11203;SDS011;5659;49.408;11.116;2023-04-03T01:02:42;3.10;;;2.40;;
11203;SDS011;5659;49.408;11.116;2023-04-03T01:05:10;3.27;;;2.73;;
11203;SDS011;5659;49.408;11.116;2023-04-03T01:07:37;4.90;;;2.30;;
11203;SDS011;5659;49.408;11.116;2023-04-03T01:10:06;2.57;;;2.27;;
11203;SDS011;5659;49.408;11.116;2023-04-03T01:12:35;3.30;;;2.53;;
11203;SDS011;5659;49.408;11.116;2023-04-03T01:15:05;3.30;;;2.40;;
11203;SDS011;5659;49.408;11.116;2023-04-03T01:17:37;2.63;;;2.43;;
11203;SDS011;5659;49.408;11.116;2023-04-03T01:25:26;3.40;;;2.80;;
11203;SDS011;5659;49.408;11.116;2023-04-03T01:27:52;4.10;;;2.60;;
11203;SDS011;5659;49.408;11.116;2023-04-03T01:30:18;3.17;;;2.53;;
11203;SDS011;5659;49.408;11.116;2023-04-03T01:32:46;3.03;;;2.40;;
11203;SDS011;5659;49.408;11.116;2023-04-03T01:35:11;3.10;;;2.50;;
11203;SDS011;5659;49.408;11.116;2023-04-03T01:37:37;6.23;;;2.50;;
11203;SDS011;5659;49.408;11.116;2023-04-03T01:40:04;5.13;;;2.53;;
11203;SDS011;5659;49.408;11.116;2023-04-03T01:42:30;3.07;;;2.43;;
11203;SDS011;5659;49.408;11.116;2023-04-03T01:44:56;3.57;;;2.73;;
11203;SDS011;5659;49.408;11.116;2023-04-03T01:47:21;4.40;;;2.87;;
11203;SDS011;5659;49.408;11.116;2023-04-03T01:49:47;2.90;;;2.60;;
11203;SDS011;5659;49.408;11.116;2023-04-03T01:52:13;4.70;;;2.80;;
11203;SDS011;5659;49.408;11.116;2023-04-03T01:54:38;4.07;;;2.63;;
11203;SDS011;5659;49.408;11.116;2023-04-03T01:57:04;6.27;;;2.60;;
11203;SDS011;5659;49.408;11.116;2023-04-03T01:59:30;4.30;;;2.70;;
11203;SDS011;5659;49.408;11.116;2023-04-03T02:01:55;4.10;;;2.60;;
11203;SDS011;5659;49.408;11.116;2023-04-03T02:04:21;2.67;;;2.47;;
11203;SDS011;5659;49.408;11.116;2023-04-03T02:06:47;3.50;;;2.50;;
11203;SDS011;5659;49.408;11.116;2023-04-03T02:09:13;8.43;;;2.50;;
11203;SDS011;5659;49.408;11.116;2023-04-03T02:11:38;4.77;;;2.80;;
11203;SDS011;5659;49.408;11.116;2023-04-03T02:14:04;4.83;;;3.00;;
11203;SDS011;5659;49.408;11.116;2023-04-03T02:16:30;5.33;;;2.53;;
11203;SDS011;5659;49.408;11.116;2023-04-03T02:18:55;3.23;;;2.90;;
11203;SDS011;5659;49.408;11.116;2023-04-03T02:21:22;3.70;;;2.70;;
11203;SDS011;5659;49.408;11.116;2023-04-03T02:23:47;4.27;;;2.80;;
11203;SDS011;5659;49.408;11.116;2023-04-03T02:26:13;11.63;;;3.87;;
11203;SDS011;5659;49.408;11.116;2023-04-03T02:28:40;4.50;;;2.83;;
11203;SDS011;5659;49.408;11.116;2023-04-03T02:31:06;3.77;;;2.77;;
11203;SDS011;5659;49.408;11.116;2023-04-03T02:33:33;3.37;;;2.37;;
11203;SDS011;5659;49.408;11.116;2023-04-03T02:35:58;3.27;;;2.70;;
11203;SDS011;5659;49.408;11.116;2023-04-03T02:38:24;6.43;;;3.00;;
11203;SDS011;5659;49.408;11.116;2023-04-03T02:40:50;3.40;;;2.90;;
11203;SDS011;5659;49.408;11.116;2023-04-03T02:43:16;3.00;;;2.53;;
11203;SDS011;5659;49.408;11.116;2023-04-03T02:45:42;4.30;;;2.63;;
11203;SDS011;5659;49.408;11.116;2023-04-03T02:48:08;3.90;;;2.60;;
11203;SDS011;5659;49.408;11.116;2023-04-03T02:50:34;3.20;;;2.47;;
11203;SDS011;5659;49.408;11.116;2023-04-03T02:52:59;4.33;;;2.87;;
11203;SDS011;5659;49.408;11.116;2023-04-03T02:55:25;6.37;;;2.70;;
11203;SDS011;5659;49.408;11.116;2023-04-03T02:57:51;4.13;;;2.80;;
11203;SDS011;5659;49.408;11.116;2023-04-03T03:00:16;6.17;;;2.83;;
11203;SDS011;5659;49.408;11.116;2023-04-03T03:02:42;4.23;;;2.40;;
11203;SDS011;5659;49.408;11.116;2023-04-03T03:05:08;4.50;;;2.70;;
11203;SDS011;5659;49.408;11.116;2023-04-03T03:07:33;3.03;;;2.70;;
11203;SDS011;5659;49.408;11.116;2023-04-03T03:09:59;3.53;;;2.57;;
11203;SDS011;5659;49.408;11.116;2023-04-03T03:12:25;5.43;;;2.87;;
11203;SDS011;5659;49.408;11.116;2023-04-03T03:14:51;4.90;;;2.70;;
11203;SDS011;5659;49.408;11.116;2023-04-03T03:17:16;7.23;;;2.67;;
11203;SDS011;5659;49.408;11.116;2023-04-03T03:19:42;6.87;;;2.73;;
11203;SDS011;5659;49.408;11.116;2023-04-03T03:22:08;3.40;;;2.80;;
11203;SDS011;5659;49.408;11.116;2023-04-03T03:24:34;5.23;;;2.87;;
11203;SDS011;5659;49.408;11.116;2023-04-03T03:27:00;3.70;;;2.70;;
11203;SDS011;5659;49.408;11.116;2023-04-03T03:29:25;3.53;;;2.80;;
11203;SDS011;5659;49.408;11.116;2023-04-03T03:31:51;5.20;;;3.17;;
11203;SDS011;5659;49.408;11.116;2023-04-03T03:34:17;3.73;;;2.93;;
11203;SDS011;5659;49.408;11.116;2023-04-03T03:36:42;6.33;;;2.80;;
11203;SDS011;5659;49.408;11.116;2023-04-03T03:39:08;6.00;;;3.40;;
11203;SDS011;5659;49.408;11.116;2023-04-03T03:41:34;4.63;;;2.93;;
11203;SDS011;5659;49.408;11.116;2023-04-03T03:44:00;3.33;;;2.70;;
11203;SDS011;5659;49.408;11.116;2023-04-03T03:46:26;7.17;;;3.20;;
11203;SDS011;5659;49.408;11.116;2023-04-03T03:48:51;6.00;;;2.73;;
11203;SDS011;5659;49.408;11.116;2023-04-03T03:51:17;3.40;;;2.80;;
11203;SDS011;5659;49.408;11.116;2023-04-03T03:53:42;3.73;;;3.07;;
11203;SDS011;5659;49.408;11.116;2023-04-03T03:56:08;5.50;;;3.23;;
11203;SDS011;5659;49.408;11.116;2023-04-03T03:58:33;5.13;;;3.30;;
11203;SDS011;5659;49.408;11.116;2023-04-03T04:01:06;6.63;;;3.07;;
11203;SDS011;5659;49.408;11.116;2023-04-03T04:03:32;6.43;;;3.20;;
11203;SDS011;5659;49.408;11.116;2023-04-03T04:05:57;6.40;;;3.20;;
11203;SDS011;5659;49.408;11.116;2023-04-03T04:08:23;6.37;;;3.43;;
11203;SDS011;5659;49.408;11.116;2023-04-03T04:10:50;5.67;;;3.50;;
11203;SDS011;5659;49.408;11.116;2023-04-03T04:13:17;5.43;;;2.93;;
11203;SDS011;5659;49.408;11.116;2023-04-03T04:15:43;4.80;;;3.43;;
11203;SDS011;5659;49.408;11.116;2023-04-03T04:18:10;6.20;;;3.27;;
11203;SDS011;5659;49.408;11.116;2023-04-03T04:20:37;5.13;;;3.13;;
11203;SDS011;5659;49.408;11.116;2023-04-03T04:23:03;8.13;;;3.73;;
11203;SDS011;5659;49.408;11.116;2023-04-03T04:25:30;7.93;;;3.37;;
11203;SDS011;5659;49.408;11.116;2023-04-03T04:27:57;6.73;;;3.50;;
11203;SDS011;5659;49.408;11.116;2023-04-03T04:30:24;6.23;;;3.57;;
11203;SDS011;5659;49.408;11.116;2023-04-03T04:32:52;6.27;;;3.50;;
11203;SDS011;5659;49.408;11.116;2023-04-03T04:35:19;5.73;;;3.80;;
11203;SDS011;5659;49.408;11.116;2023-04-03T04:37:46;5.43;;;3.53;;
11203;SDS011;5659;49.408;11.116;2023-04-03T04:40:12;7.67;;;3.73;;
11203;SDS011;5659;49.408;11.116;2023-04-03T04:42:40;8.63;;;3.80;;
11203;SDS011;5659;49.408;11.116;2023-04-03T04:45:06;7.53;;;4.00;;
11203;SDS011;5659;49.408;11.116;2023-04-03T04:47:33;6.73;;;3.80;;
11203;SDS011;5659;49.408;11.116;2023-04-03T04:50:00;6.23;;;3.70;;
11203;SDS011;5659;49.408;11.116;2023-04-03T04:52:27;8.13;;;4.27;;
11203;SDS011;5659;49.408;11.116;2023-04-03T04:54:54;6.77;;;3.67;;
11203;SDS011;5659;49.408;11.116;2023-04-03T04:57:21;5.57;;;3.90;;
11203;SDS011;5659;49.408;11.116;2023-04-03T04:59:47;6.17;;;3.80;;
11203;SDS011;5659;49.408;11.116;2023-04-03T05:02:14;6.93;;;3.87;;
11203;SDS011;5659;49.408;11.116;2023-04-03T05:04:41;5.67;;;4.30;;
11203;SDS011;5659;49.408;11.116;2023-04-03T05:07:08;8.07;;;4.83;;
11203;SDS011;5659;49.408;11.116;2023-04-03T05:09:35;6.57;;;3.67;;
11203;SDS011;5659;49.408;11.116;2023-04-03T05:12:02;7.63;;;4.53;;
11203;SDS011;5659;49.408;11.116;2023-04-03T05:14:29;8.03;;;3.87;;
11203;SDS011;5659;49.408;11.116;2023-04-03T05:16:55;7.93;;;4.10;;
11203;SDS011;5659;49.408;11.116;2023-04-03T05:19:23;6.00;;;4.00;;
11203;SDS011;5659;49.408;11.116;2023-04-03T05:21:49;5.90;;;4.30;;
11203;SDS011;5659;49.408;11.116;2023-04-03T05:24:16;7.57;;;4.33;;
11203;SDS011;5659;49.408;11.116;2023-04-03T05:26:43;9.10;;;4.20;;
11203;SDS011;5659;49.408;11.116;2023-04-03T05:29:10;8.47;;;4.27;;
11203;SDS011;5659;49.408;11.116;2023-04-03T05:31:38;5.50;;;4.20;;
11203;SDS011;5659;49.408;11.116;2023-04-03T05:34:05;7.00;;;3.80;;
11203;SDS011;5659;49.408;11.116;2023-04-03T05:36:31;7.90;;;3.97;;
11203;SDS011;5659;49.408;11.116;2023-04-03T05:38:56;5.73;;;3.97;;
11203;SDS011;5659;49.408;11.116;2023-04-03T05:41:22;9.00;;;4.10;;
11203;SDS011;5659;49.408;11.116;2023-04-03T05:43:48;7.90;;;4.40;;
11203;SDS011;5659;49.408;11.116;2023-04-03T05:46:15;6.30;;;3.60;;
11203;SDS011;5659;49.408;11.116;2023-04-03T05:48:42;5.27;;;3.70;;
11203;SDS011;5659;49.408;11.116;2023-04-03T05:51:13;6.67;;;3.90;;
11203;SDS011;5659;49.408;11.116;2023-04-03T05:53:40;7.03;;;3.70;;
11203;SDS011;5659;49.408;11.116;2023-04-03T05:56:08;9.03;;;4.00;;
11203;SDS011;5659;49.408;11.116;2023-04-03T05:58:33;5.10;;;4.10;;
11203;SDS011;5659;49.408;11.116;2023-04-03T06:00:59;6.47;;;4.50;;
11203;SDS011;5659;49.408;11.116;2023-04-03T06:03:24;6.53;;;3.43;;
11203;SDS011;5659;49.408;11.116;2023-04-03T06:05:51;10.13;;;4.27;;
11203;SDS011;5659;49.408;11.116;2023-04-03T06:08:16;13.03;;;4.10;;
11203;SDS011;5659;49.408;11.116;2023-04-03T06:10:42;5.43;;;3.53;;
11203;SDS011;5659;49.408;11.116;2023-04-03T06:13:07;6.97;;;3.83;;
11203;SDS011;5659;49.408;11.116;2023-04-03T06:15:33;6.80;;;3.17;;
11203;SDS011;5659;49.408;11.116;2023-04-03T06:17:59;6.43;;;3.50;;
11203;SDS011;5659;49.408;11.116;2023-04-03T06:20:25;6.57;;;3.50;;
11203;SDS011;5659;49.408;11.116;2023-04-03T06:22:51;8.87;;;3.57;;
11203;SDS011;5659;49.408;11.116;2023-04-03T06:25:17;10.10;;;3.70;;
11203;SDS011;5659;49.408;11.116;2023-04-03T06:27:44;7.10;;;3.13;;
11203;SDS011;5659;49.408;11.116;2023-04-03T06:30:10;7.63;;;3.37;;
11203;SDS011;5659;49.408;11.116;2023-04-03T06:32:37;8.17;;;3.50;;
11203;SDS011;5659;49.408;11.116;2023-04-03T06:35:04;8.40;;;3.20;;
11203;SDS011;5659;49.408;11.116;2023-04-03T06:37:31;6.93;;;3.40;;
11203;SDS011;5659;49.408;11.116;2023-04-03T06:39:59;5.93;;;3.07;;
11203;SDS011;5659;49.408;11.116;2023-04-03T06:42:27;10.40;;;3.27;;
11203;SDS011;5659;49.408;11.116;2023-04-03T06:44:54;8.77;;;3.23;;
11203;SDS011;5659;49.408;11.116;2023-04-03T06:47:20;8.80;;;3.67;;
11203;SDS011;5659;49.408;11.116;2023-04-03T06:49:46;7.70;;;2.93;;
11203;SDS011;5659;49.408;11.116;2023-04-03T06:52:13;8.70;;;3.20;;
11203;SDS011;5659;49.408;11.116;2023-04-03T06:54:40;3.77;;;2.53;;
11203;SDS011;5659;49.408;11.116;2023-04-03T06:57:07;21.30;;;3.93;;
11203;SDS011;5659;49.408;11.116;2023-04-03T06:59:35;10.87;;;3.63;;
11203;SDS011;5659;49.408;11.116;2023-04-03T07:02:02;7.20;;;3.20;;
11203;SDS011;5659;49.408;11.116;2023-04-03T07:04:28;8.93;;;3.20;;
11203;SDS011;5659;49.408;11.116;2023-04-03T07:06:56;6.03;;;3.03;;
11203;SDS011;5659;49.408;11.116;2023-04-03T07:09:22;8.73;;;3.03;;
11203;SDS011;5659;49.408;11.116;2023-04-03T07:11:49;9.47;;;3.47;;
11203;SDS011;5659;49.408;11.116;2023-04-03T07:14:17;6.17;;;3.00;;
11203;SDS011;5659;49.408;11.116;2023-04-03T07:16:44;6.57;;;3.00;;
11203;SDS011;5659;49.408;11.116;2023-04-03T07:19:10;7.33;;;2.80;;
11203;SDS011;5659;49.408;11.116;2023-04-03T07:21:37;7.67;;;3.13;;
11203;SDS011;5659;49.408;11.116;2023-04-03T07:24:05;9.37;;;2.93;;
11203;SDS011;5659;49.408;11.116;2023-04-03T07:26:32;18.90;;;3.70;;
11203;SDS011;5659;49.408;11.116;2023-04-03T07:28:59;5.37;;;3.07;;
11203;SDS011;5659;49.408;11.116;2023-04-03T07:31:26;6.63;;;3.03;;
11203;SDS011;5659;49.408;11.116;2023-04-03T07:33:53;8.17;;;3.07;;
11203;SDS011;5659;49.408;11.116;2023-04-03T07:36:20;5.27;;;3.37;;
11203;SDS011;5659;49.408;11.116;2023-04-03T07:38:47;12.53;;;2.83;;
11203;SDS011;5659;49.408;11.116;2023-04-03T07:41:14;6.43;;;3.10;;
11203;SDS011;5659;49.408;11.116;2023-04-03T07:43:42;13.73;;;3.30;;
11203;SDS011;5659;49.408;11.116;2023-04-03T07:46:10;15.00;;;3.60;;
11203;SDS011;5659;49.408;11.116;2023-04-03T07:48:37;7.67;;;2.93;;
11203;SDS011;5659;49.408;11.116;2023-04-03T07:51:07;6.60;;;2.87;;
11203;SDS011;5659;49.408;11.116;2023-04-03T07:53:34;11.13;;;3.03;;
11203;SDS011;5659;49.408;11.116;2023-04-03T07:56:01;6.97;;;3.47;;
11203;SDS011;5659;49.408;11.116;2023-04-03T07:58:28;4.20;;;2.73;;
11203;SDS011;5659;49.408;11.116;2023-04-03T08:00:55;6.53;;;2.87;;
11203;SDS011;5659;49.408;11.116;2023-04-03T08:03:22;4.93;;;2.80;;
11203;SDS011;5659;49.408;11.116;2023-04-03T08:05:49;7.90;;;3.40;;
11203;SDS011;5659;49.408;11.116;2023-04-03T08:08:19;3.30;;;2.40;;
11203;SDS011;5659;49.408;11.116;2023-04-03T08:10:50;7.83;;;2.97;;
11203;SDS011;5659;49.408;11.116;2023-04-03T08:13:17;10.47;;;3.00;;
11203;SDS011;5659;49.408;11.116;2023-04-03T08:15:45;6.63;;;2.70;;
11203;SDS011;5659;49.408;11.116;2023-04-03T08:18:12;4.63;;;2.83;;
11203;SDS011;5659;49.408;11.116;2023-04-03T08:20:40;5.83;;;2.70;;
11203;SDS011;5659;49.408;11.116;2023-04-03T08:23:07;7.77;;;2.90;;
11203;SDS011;5659;49.408;11.116;2023-04-03T08:25:41;7.73;;;3.03;;
11203;SDS011;5659;49.408;11.116;2023-04-03T08:28:08;7.53;;;2.50;;
11203;SDS011;5659;49.408;11.116;2023-04-03T08:30:38;3.60;;;2.53;;
11203;SDS011;5659;49.408;11.116;2023-04-03T08:33:05;6.60;;;2.80;;
11203;SDS011;5659;49.408;11.116;2023-04-03T08:35:33;3.53;;;2.60;;
11203;SDS011;5659;49.408;11.116;2023-04-03T08:38:05;5.87;;;3.00;;
11203;SDS011;5659;49.408;11.116;2023-04-03T08:40:32;4.23;;;2.60;;
11203;SDS011;5659;49.408;11.116;2023-04-03T08:43:51;6.30;;;2.80;;
11203;SDS011;5659;49.408;11.116;2023-04-03T08:45:48;4.63;;;2.70;;
11203;SDS011;5659;49.408;11.116;2023-04-03T08:48:20;10.40;;;2.80;;
11203;SDS011;5659;49.408;11.116;2023-04-03T08:50:49;7.93;;;2.43;;
11203;SDS011;5659;49.408;11.116;2023-04-03T08:53:19;6.43;;;2.73;;
11203;SDS011;5659;49.408;11.116;2023-04-03T08:55:48;6.13;;;2.60;;
11203;SDS011;5659;49.408;11.116;2023-04-03T09:03:15;6.30;;;2.60;;
11203;SDS011;5659;49.408;11.116;2023-04-03T09:10:46;6.13;;;2.33;;
11203;SDS011;5659;49.408;11.116;2023-04-03T09:13:57;4.17;;;2.10;;
11203;SDS011;5659;49.408;11.116;2023-04-03T09:16:04;5.57;;;2.23;;
11203;SDS011;5659;49.408;11.116;2023-04-03T09:18:40;8.00;;;2.13;;
11203;SDS011;5659;49.408;11.116;2023-04-03T09:21:32;3.93;;;2.27;;
11203;SDS011;5659;49.408;11.116;2023-04-03T09:24:01;12.07;;;3.50;;
11203;SDS011;5659;49.408;11.116;2023-04-03T09:27:14;4.93;;;2.20;;
11203;SDS011;5659;49.408;11.116;2023-04-03T09:29:23;32.30;;;3.67;;
11203;SDS011;5659;49.408;11.116;2023-04-03T09:31:59;4.50;;;2.30;;
11203;SDS011;5659;49.408;11.116;2023-04-03T09:36:56;3.90;;;2.33;;
11203;SDS011;5659;49.408;11.116;2023-04-03T09:39:28;4.37;;;2.30;;
11203;SDS011;5659;49.408;11.116;2023-04-03T09:44:23;4.43;;;2.40;;
11203;SDS011;5659;49.408;11.116;2023-04-03T09:46:51;4.17;;;2.50;;
11203;SDS011;5659;49.408;11.116;2023-04-03T09:49:18;4.77;;;2.40;;
11203;SDS011;5659;49.408;11.116;2023-04-03T09:51:45;4.63;;;2.70;;
11203;SDS011;5659;49.408;11.116;2023-04-03T09:54:31;4.63;;;2.23;;
11203;SDS011;5659;49.408;11.116;2023-04-03T09:57:06;3.97;;;2.30;;
11203;SDS011;5659;49.408;11.116;2023-04-03T09:59:33;6.23;;;2.00;;
11203;SDS011;5659;49.408;11.116;2023-04-03T10:04:46;5.40;;;2.23;;
11203;SDS011;5659;49.408;11.116;2023-04-03T10:07:48;7.03;;;2.87;;
11203;SDS011;5659;49.408;11.116;2023-04-03T10:10:29;4.77;;;2.30;;
11203;SDS011;5659;49.408;11.116;2023-04-03T10:13:11;4.57;;;2.40;;
11203;SDS011;5659;49.408;11.116;2023-04-03T10:15:40;7.40;;;2.13;;
11203;SDS011;5659;49.408;11.116;2023-04-03T10:20:52;3.60;;;2.10;;
11203;SDS011;5659;49.408;11.116;2023-04-03T10:23:22;3.30;;;2.07;;
11203;SDS011;5659;49.408;11.116;2023-04-03T10:28:57;2.80;;;1.90;;
11203;SDS011;5659;49.408;11.116;2023-04-03T10:31:33;2.57;;;1.93;;
11203;SDS011;5659;49.408;11.116;2023-04-03T10:44:36;3.57;;;2.47;;
11203;SDS011;5659;49.408;11.116;2023-04-03T10:47:20;11.23;;;2.10;;
11203;SDS011;5659;49.408;11.116;2023-04-03T10:52:20;4.77;;;2.00;;
11203;SDS011;5659;49.408;11.116;2023-04-03T10:57:19;5.17;;;2.30;;
11203;SDS011;5659;49.408;11.116;2023-04-03T11:00:09;5.63;;;2.10;;
11203;SDS011;5659;49.408;11.116;2023-04-03T11:05:44;4.20;;;1.70;;
11203;SDS011;5659;49.408;11.116;2023-04-03T11:08:28;3.00;;;2.03;;
11203;SDS011;5659;49.408;11.116;2023-04-03T11:10:58;4.85;;;2.25;;
11203;SDS011;5659;49.408;11.116;2023-04-03T11:13:28;37.40;;;4.85;;
11203;SDS011;5659;49.408;11.116;2023-04-03T11:15:57;9.60;;;2.40;;
11203;SDS011;5659;49.408;11.116;2023-04-03T11:18:39;20.23;;;2.75;;
11203;SDS011;5659;49.408;11.116;2023-04-03T11:21:19;2.10;;;1.88;;
11203;SDS011;5659;49.408;11.116;2023-04-03T11:23:47;2.83;;;1.80;;
11203;SDS011;5659;49.408;11.116;2023-04-03T11:26:15;3.15;;;1.90;;
11203;SDS011;5659;49.408;11.116;2023-04-03T11:28:42;3.92;;;1.92;;
11203;SDS011;5659;49.408;11.116;2023-04-03T11:34:17;5.40;;;2.00;;
11203;SDS011;5659;49.408;11.116;2023-04-03T11:36:33;2.45;;;1.63;;
11203;SDS011;5659;49.408;11.116;2023-04-03T11:39:16;87.13;;;9.20;;
11203;SDS011;5659;49.408;11.116;2023-04-03T11:41:48;5.05;;;2.30;;
11203;SDS011;5659;49.408;11.116;2023-04-03T11:44:47;2.78;;;1.52;;
11203;SDS011;5659;49.408;11.116;2023-04-03T11:47:13;4.63;;;1.70;;
11203;SDS011;5659;49.408;11.116;2023-04-03T11:50:05;5.43;;;2.05;;
11203;SDS011;5659;49.408;11.116;2023-04-03T12:05:48;7.53;;;1.67;;
11203;SDS011;5659;49.408;11.116;2023-04-03T12:16:05;2.58;;;1.40;;
11203;SDS011;5659;49.408;11.116;2023-04-03T12:21:11;2.85;;;1.58;;
11203;SDS011;5659;49.408;11.116;2023-04-03T12:26:24;4.43;;;1.58;;
11203;SDS011;5659;49.408;11.116;2023-04-03T12:28:51;2.05;;;1.50;;
11203;SDS011;5659;49.408;11.116;2023-04-03T12:31:18;2.78;;;1.70;;
11203;SDS011;5659;49.408;11.116;2023-04-03T12:36:42;2.65;;;1.50;;
11203;SDS011;5659;49.408;11.116;2023-04-03T12:39:17;3.63;;;1.83;;
11203;SDS011;5659;49.408;11.116;2023-04-03T12:41:58;3.78;;;1.40;;
11203;SDS011;5659;49.408;11.116;2023-04-03T12:44:38;2.40;;;1.30;;
11203;SDS011;5659;49.408;11.116;2023-04-03T12:47:15;1.23;;;1.00;;
11203;SDS011;5659;49.408;11.116;2023-04-03T12:49:42;3.72;;;1.40;;
11203;SDS011;5659;49.408;11.116;2023-04-03T12:55:15;2.40;;;1.30;;
11203;SDS011;5659;49.408;11.116;2023-04-03T12:57:42;2.88;;;1.30;;
11203;SDS011;5659;49.408;11.116;2023-04-03T13:00:21;6.90;;;1.50;;
11203;SDS011;5659;49.408;11.116;2023-04-03T13:02:47;5.28;;;1.80;;
11203;SDS011;5659;49.408;11.116;2023-04-03T13:05:15;5.28;;;1.75;;
11203;SDS011;5659;49.408;11.116;2023-04-03T13:07:42;5.53;;;2.00;;
11203;SDS011;5659;49.408;11.116;2023-04-03T13:12:35;2.42;;;1.40;;
11203;SDS011;5659;49.408;11.116;2023-04-03T13:15:03;3.17;;;1.40;;
11203;SDS011;5659;49.408;11.116;2023-04-03T13:17:41;3.63;;;1.65;;
11203;SDS011;5659;49.408;11.116;2023-04-03T13:20:40;2.10;;;1.40;;
11203;SDS011;5659;49.408;11.116;2023-04-03T13:25:27;3.13;;;1.80;;
11203;SDS011;5659;49.408;11.116;2023-04-03T13:27:53;3.50;;;1.90;;
11203;SDS011;5659;49.408;11.116;2023-04-03T13:30:49;3.03;;;1.80;;
11203;SDS011;5659;49.408;11.116;2023-04-03T13:33:18;4.20;;;2.10;;
11203;SDS011;5659;49.408;11.116;2023-04-03T13:35:44;3.63;;;1.73;;
11203;SDS011;5659;49.408;11.116;2023-04-03T13:40:47;3.50;;;1.50;;
11203;SDS011;5659;49.408;11.116;2023-04-03T13:43:17;3.78;;;1.58;;
11203;SDS011;5659;49.408;11.116;2023-04-03T13:45:55;1.75;;;1.48;;
11203;SDS011;5659;49.408;11.116;2023-04-03T13:48:22;5.72;;;1.60;;
11203;SDS011;5659;49.408;11.116;2023-04-03T13:51:02;5.97;;;1.40;;
11203;SDS011;5659;49.408;11.116;2023-04-03T13:53:29;3.58;;;1.80;;
11203;SDS011;5659;49.408;11.116;2023-04-03T13:55:58;5.03;;;1.73;;
11203;SDS011;5659;49.408;11.116;2023-04-03T13:58:25;9.40;;;2.20;;
11203;SDS011;5659;49.408;11.116;2023-04-03T14:00:52;8.80;;;1.52;;
11203;SDS011;5659;49.408;11.116;2023-04-03T14:03:21;5.47;;;1.63;;
11203;SDS011;5659;49.408;11.116;2023-04-03T14:05:47;4.30;;;1.35;;
11203;SDS011;5659;49.408;11.116;2023-04-03T14:08:13;6.18;;;1.80;;
11203;SDS011;5659;49.408;11.116;2023-04-03T14:10:39;2.35;;;1.60;;
11203;SDS011;5659;49.408;11.116;2023-04-03T14:13:05;4.05;;;1.63;;
11203;SDS011;5659;49.408;11.116;2023-04-03T14:15:31;1.98;;;1.40;;
11203;SDS011;5659;49.408;11.116;2023-04-03T14:17:58;2.22;;;1.60;;
11203;SDS011;5659;49.408;11.116;2023-04-03T14:20:24;2.08;;;1.35;;
11203;SDS011;5659;49.408;11.116;2023-04-03T14:22:51;3.55;;;1.65;;
11203;SDS011;5659;49.408;11.116;2023-04-03T14:25:18;3.15;;;1.75;;
11203;SDS011;5659;49.408;11.116;2023-04-03T14:27:48;2.40;;;1.58;;
11203;SDS011;5659;49.408;11.116;2023-04-03T14:30:23;4.00;;;1.60;;
11203;SDS011;5659;49.408;11.116;2023-04-03T14:32:49;3.90;;;1.88;;
11203;SDS011;5659;49.408;11.116;2023-04-03T14:35:16;3.63;;;1.80;;
11203;SDS011;5659;49.408;11.116;2023-04-03T14:37:42;3.03;;;1.75;;
11203;SDS011;5659;49.408;11.116;2023-04-03T14:40:11;2.65;;;1.70;;
11203;SDS011;5659;49.408;11.116;2023-04-03T14:42:38;2.55;;;1.70;;
11203;SDS011;5659;49.408;11.116;2023-04-03T14:45:05;4.43;;;1.67;;
11203;SDS011;5659;49.408;11.116;2023-04-03T14:47:32;3.30;;;1.63;;
11203;SDS011;5659;49.408;11.116;2023-04-03T14:50:01;5.88;;;1.77;;
11203;SDS011;5659;49.408;11.116;2023-04-03T14:52:32;4.53;;;1.60;;
11203;SDS011;5659;49.408;11.116;2023-04-03T14:54:58;2.55;;;1.70;;
11203;SDS011;5659;49.408;11.116;2023-04-03T14:57:25;3.92;;;2.17;;
11203;SDS011;5659;49.408;11.116;2023-04-03T14:59:52;3.65;;;2.03;;
11203;SDS011;5659;49.408;11.116;2023-04-03T15:04:47;5.65;;;2.03;;
11203;SDS011;5659;49.408;11.116;2023-04-03T15:07:13;4.35;;;2.00;;
11203;SDS011;5659;49.408;11.116;2023-04-03T15:09:39;2.85;;;1.95;;
11203;SDS011;5659;49.408;11.116;2023-04-03T15:12:07;2.60;;;1.75;;
11203;SDS011;5659;49.408;11.116;2023-04-03T15:14:33;5.68;;;1.90;;
11203;SDS011;5659;49.408;11.116;2023-04-03T15:16:59;3.63;;;1.60;;
11203;SDS011;5659;49.408;11.116;2023-04-03T15:19:26;4.50;;;2.17;;
11203;SDS011;5659;49.408;11.116;2023-04-03T15:21:51;2.03;;;1.50;;
11203;SDS011;5659;49.408;11.116;2023-04-03T15:24:17;2.47;;;1.40;;
11203;SDS011;5659;49.408;11.116;2023-04-03T15:26:43;2.95;;;1.60;;
11203;SDS011;5659;49.408;11.116;2023-04-03T15:29:09;3.97;;;1.85;;
11203;SDS011;5659;49.408;11.116;2023-04-03T15:31:35;2.80;;;1.90;;
11203;SDS011;5659;49.408;11.116;2023-04-03T15:34:02;2.88;;;1.58;;
11203;SDS011;5659;49.408;11.116;2023-04-03T15:36:28;3.55;;;2.00;;
11203;SDS011;5659;49.408;11.116;2023-04-03T15:38:54;2.33;;;1.77;;
11203;SDS011;5659;49.408;11.116;2023-04-03T15:41:20;6.03;;;1.90;;
11203;SDS011;5659;49.408;11.116;2023-04-03T15:43:46;2.70;;;1.50;;
11203;SDS011;5659;49.408;11.116;2023-04-03T15:46:12;3.47;;;1.80;;
11203;SDS011;5659;49.408;11.116;2023-04-03T15:48:38;5.28;;;1.92;;
11203;SDS011;5659;49.408;11.116;2023-04-03T15:51:05;3.35;;;1.85;;
11203;SDS011;5659;49.408;11.116;2023-04-03T15:53:31;2.28;;;1.60;;
11203;SDS011;5659;49.408;11.116;2023-04-03T15:55:57;4.35;;;2.42;;
11203;SDS011;5659;49.408;11.116;2023-04-03T15:58:23;4.05;;;2.55;;
11203;SDS011;5659;49.408;11.116;2023-04-03T16:00:50;5.15;;;1.70;;
11203;SDS011;5659;49.408;11.116;2023-04-03T16:03:17;3.85;;;1.90;;
11203;SDS011;5659;49.408;11.116;2023-04-03T16:05:43;3.65;;;1.80;;
11203;SDS011;5659;49.408;11.116;2023-04-03T16:08:09;3.13;;;1.80;;
11203;SDS011;5659;49.408;11.116;2023-04-03T16:10:36;2.75;;;1.88;;
11203;SDS011;5659;49.408;11.116;2023-04-03T16:13:02;3.88;;;2.03;;
11203;SDS011;5659;49.408;11.116;2023-04-03T16:15:29;2.72;;;1.77;;
11203;SDS011;5659;49.408;11.116;2023-04-03T16:17:55;3.10;;;2.10;;
11203;SDS011;5659;49.408;11.116;2023-04-03T16:20:21;4.00;;;2.00;;
11203;SDS011;5659;49.408;11.116;2023-04-03T16:22:47;4.40;;;1.93;;
11203;SDS011;5659;49.408;11.116;2023-04-03T16:25:13;3.73;;;1.90;;
11203;SDS011;5659;49.408;11.116;2023-04-03T16:27:40;10.13;;;2.30;;